This is the latest recevied weather packets stored in our database for station/object 9W2CEW-1. If no packets are shown the sender has not sent any weather packets the latest 1 day(s).
| Time | Temp. | Humidity | Pressure | Rain* | Wind** | Luminosity | Snow |
|---|---|---|---|---|---|---|---|
| 1777872848 | 26.11° C | 100% | 1005.8 hPa | - | - | - | - |
| 1777872343 | 25.56° C | 100% | 1005.7 hPa | - | - | - | - |
| 1777871948 | 27.78° C | 100% | 1006.1 hPa | - | - | - | - |
| 1777871048 | 25.56° C | 100% | 1005.7 hPa | - | - | - | - |
| 1777870675 | 29.44° C | 76% | 1005.6 hPa | - | - | - | - |
| 1777870148 | 26.11° C | 100% | 1005.7 hPa | - | - | - | - |
| 1777869299 | 38.33° C | 44% | 1005.5 hPa | - | - | - | - |
| 1777869248 | 29.44° C | 76% | 1005.6 hPa | - | - | - | - |
| 1777868348 | 38.33° C | 44% | 1005.5 hPa | - | - | - | - |
| 1777867448 | 40° C | 44% | 1005.4 hPa | - | - | - | - |
| 1777866548 | 37.22° C | 52% | 1005.5 hPa | - | - | - | - |
| 1777865649 | 37.78° C | 51% | 1005.5 hPa | - | - | - | - |
| 1777864747 | 36.67° C | 56% | 1005.4 hPa | - | - | - | - |
| 1777863847 | 37.78° C | 50% | 1005.6 hPa | - | - | - | - |
| 1777862947 | 38.33° C | 49% | 1005.6 hPa | - | - | - | - |
| 1777862047 | 36.11° C | 52% | 1005.9 hPa | - | - | - | - |
| 1777861147 | 36.67° C | 51% | 1006.2 hPa | - | - | - | - |
| 1777860249 | 36.67° C | 51% | 1006.2 hPa | - | - | - | - |
| 1777859349 | 36.67° C | 51% | 1005.9 hPa | - | - | - | - |
| 1777858448 | 36.67° C | 51% | 1005.8 hPa | - | - | - | - |
| 1777857548 | 36.67° C | 51% | 1005.6 hPa | - | - | - | - |
| 1777856648 | 35.56° C | 55% | 1005.5 hPa | - | - | - | - |
| 1777855748 | 36.67° C | 51% | 1005.2 hPa | - | - | - | - |
| 1777854850 | 35° C | 57% | 1004.8 hPa | - | - | - | - |
| 1777853948 | 34.44° C | 59% | 1004.8 hPa | - | - | - | - |
* Rain since midnight (hover to see other rain measurements)
** Current wind speed in m/s (hover to see current wind gust speed)